sensor_id;sensor_type;location;lat;lon;timestamp;P1;durP1;ratioP1;P2;durP2;ratioP2
51499;SDS011;39101;53.478;6.158;2022-08-30T00:01:10;7.55;;;1.65;;
51499;SDS011;39101;53.478;6.158;2022-08-30T00:03:39;7.50;;;1.83;;
51499;SDS011;39101;53.478;6.158;2022-08-30T00:06:10;5.00;;;1.35;;
51499;SDS011;39101;53.478;6.158;2022-08-30T00:08:37;8.18;;;1.73;;
51499;SDS011;39101;53.478;6.158;2022-08-30T00:11:05;9.80;;;1.80;;
51499;SDS011;39101;53.478;6.158;2022-08-30T00:13:34;9.82;;;1.88;;
51499;SDS011;39101;53.478;6.158;2022-08-30T00:16:04;8.25;;;1.88;;
51499;SDS011;39101;53.478;6.158;2022-08-30T00:18:34;6.53;;;1.90;;
51499;SDS011;39101;53.478;6.158;2022-08-30T00:21:00;9.57;;;2.28;;
51499;SDS011;39101;53.478;6.158;2022-08-30T00:23:27;10.95;;;1.90;;
51499;SDS011;39101;53.478;6.158;2022-08-30T00:25:52;8.05;;;1.70;;
51499;SDS011;39101;53.478;6.158;2022-08-30T00:28:18;10.73;;;1.58;;
51499;SDS011;39101;53.478;6.158;2022-08-30T00:30:44;7.40;;;1.70;;
51499;SDS011;39101;53.478;6.158;2022-08-30T00:33:11;8.32;;;1.90;;
51499;SDS011;39101;53.478;6.158;2022-08-30T00:35:39;7.78;;;2.10;;
51499;SDS011;39101;53.478;6.158;2022-08-30T00:38:08;8.00;;;1.58;;
51499;SDS011;39101;53.478;6.158;2022-08-30T00:40:35;6.32;;;1.92;;
51499;SDS011;39101;53.478;6.158;2022-08-30T00:43:02;5.95;;;1.58;;
51499;SDS011;39101;53.478;6.158;2022-08-30T00:45:31;6.43;;;1.60;;
51499;SDS011;39101;53.478;6.158;2022-08-30T00:48:00;5.63;;;1.67;;
51499;SDS011;39101;53.478;6.158;2022-08-30T00:51:00;5.25;;;1.55;;
51499;SDS011;39101;53.478;6.158;2022-08-30T00:53:20;5.60;;;1.60;;
51499;SDS011;39101;53.478;6.158;2022-08-30T00:55:49;3.75;;;1.40;;
51499;SDS011;39101;53.478;6.158;2022-08-30T00:58:17;3.55;;;1.45;;
51499;SDS011;39101;53.478;6.158;2022-08-30T01:00:49;4.47;;;1.67;;
51499;SDS011;39101;53.478;6.158;2022-08-30T01:03:17;9.88;;;1.92;;
51499;SDS011;39101;53.478;6.158;2022-08-30T01:05:43;7.15;;;1.55;;
51499;SDS011;39101;53.478;6.158;2022-08-30T01:08:10;8.18;;;1.65;;
51499;SDS011;39101;53.478;6.158;2022-08-30T01:10:36;3.17;;;1.30;;
51499;SDS011;39101;53.478;6.158;2022-08-30T01:13:02;4.00;;;1.63;;
51499;SDS011;39101;53.478;6.158;2022-08-30T01:15:28;4.35;;;1.35;;
51499;SDS011;39101;53.478;6.158;2022-08-30T01:17:56;6.40;;;1.60;;
51499;SDS011;39101;53.478;6.158;2022-08-30T01:20:23;5.55;;;1.30;;
51499;SDS011;39101;53.478;6.158;2022-08-30T01:25:20;3.95;;;1.55;;
51499;SDS011;39101;53.478;6.158;2022-08-30T01:27:59;7.65;;;1.35;;
51499;SDS011;39101;53.478;6.158;2022-08-30T01:30:28;4.40;;;1.40;;
51499;SDS011;39101;53.478;6.158;2022-08-30T01:32:58;9.60;;;1.50;;
51499;SDS011;39101;53.478;6.158;2022-08-30T01:35:26;2.42;;;1.05;;
51499;SDS011;39101;53.478;6.158;2022-08-30T01:37:52;2.60;;;1.50;;
51499;SDS011;39101;53.478;6.158;2022-08-30T01:40:19;3.10;;;1.27;;
51499;SDS011;39101;53.478;6.158;2022-08-30T01:42:45;6.28;;;1.10;;
51499;SDS011;39101;53.478;6.158;2022-08-30T01:45:11;5.72;;;1.70;;
51499;SDS011;39101;53.478;6.158;2022-08-30T01:47:37;4.32;;;1.42;;
51499;SDS011;39101;53.478;6.158;2022-08-30T01:50:03;4.72;;;1.40;;
51499;SDS011;39101;53.478;6.158;2022-08-30T01:52:31;4.50;;;1.42;;
51499;SDS011;39101;53.478;6.158;2022-08-30T01:54:57;3.85;;;1.30;;
51499;SDS011;39101;53.478;6.158;2022-08-30T01:57:23;3.90;;;1.23;;
51499;SDS011;39101;53.478;6.158;2022-08-30T01:59:51;5.18;;;1.20;;
51499;SDS011;39101;53.478;6.158;2022-08-30T02:02:18;2.67;;;0.98;;
51499;SDS011;39101;53.478;6.158;2022-08-30T02:04:47;4.88;;;1.60;;
51499;SDS011;39101;53.478;6.158;2022-08-30T02:07:13;3.05;;;1.40;;
51499;SDS011;39101;53.478;6.158;2022-08-30T02:09:39;4.53;;;1.40;;
51499;SDS011;39101;53.478;6.158;2022-08-30T02:12:05;5.20;;;1.35;;
51499;SDS011;39101;53.478;6.158;2022-08-30T02:14:32;4.55;;;1.25;;
51499;SDS011;39101;53.478;6.158;2022-08-30T02:17:00;2.20;;;1.30;;
51499;SDS011;39101;53.478;6.158;2022-08-30T02:19:26;4.15;;;1.60;;
51499;SDS011;39101;53.478;6.158;2022-08-30T02:21:53;4.70;;;1.95;;
51499;SDS011;39101;53.478;6.158;2022-08-30T02:24:19;3.67;;;1.40;;
51499;SDS011;39101;53.478;6.158;2022-08-30T02:26:45;2.08;;;1.05;;
51499;SDS011;39101;53.478;6.158;2022-08-30T02:29:10;5.75;;;2.03;;
51499;SDS011;39101;53.478;6.158;2022-08-30T02:31:36;2.33;;;1.48;;
51499;SDS011;39101;53.478;6.158;2022-08-30T02:34:02;3.88;;;1.50;;
51499;SDS011;39101;53.478;6.158;2022-08-30T02:36:28;4.78;;;1.45;;
51499;SDS011;39101;53.478;6.158;2022-08-30T02:38:54;3.10;;;1.45;;
51499;SDS011;39101;53.478;6.158;2022-08-30T02:41:20;4.25;;;1.40;;
51499;SDS011;39101;53.478;6.158;2022-08-30T02:43:47;3.65;;;1.38;;
51499;SDS011;39101;53.478;6.158;2022-08-30T02:46:13;3.65;;;1.60;;
51499;SDS011;39101;53.478;6.158;2022-08-30T02:48:41;2.88;;;1.40;;
51499;SDS011;39101;53.478;6.158;2022-08-30T02:51:09;5.75;;;1.60;;
51499;SDS011;39101;53.478;6.158;2022-08-30T02:53:37;4.27;;;1.20;;
51499;SDS011;39101;53.478;6.158;2022-08-30T02:56:03;4.57;;;1.58;;
51499;SDS011;39101;53.478;6.158;2022-08-30T02:58:29;3.55;;;1.55;;
51499;SDS011;39101;53.478;6.158;2022-08-30T03:00:55;6.22;;;1.85;;
51499;SDS011;39101;53.478;6.158;2022-08-30T03:03:21;2.13;;;1.40;;
51499;SDS011;39101;53.478;6.158;2022-08-30T03:05:47;3.05;;;1.65;;
51499;SDS011;39101;53.478;6.158;2022-08-30T03:08:12;3.63;;;1.80;;
51499;SDS011;39101;53.478;6.158;2022-08-30T03:10:38;4.72;;;1.75;;
51499;SDS011;39101;53.478;6.158;2022-08-30T03:13:04;3.33;;;1.70;;
51499;SDS011;39101;53.478;6.158;2022-08-30T03:15:32;5.75;;;2.55;;
51499;SDS011;39101;53.478;6.158;2022-08-30T03:17:59;4.05;;;1.75;;
51499;SDS011;39101;53.478;6.158;2022-08-30T03:20:25;3.45;;;1.60;;
51499;SDS011;39101;53.478;6.158;2022-08-30T03:22:51;3.63;;;1.65;;
51499;SDS011;39101;53.478;6.158;2022-08-30T03:25:17;3.53;;;1.58;;
51499;SDS011;39101;53.478;6.158;2022-08-30T03:27:47;2.40;;;1.55;;
51499;SDS011;39101;53.478;6.158;2022-08-30T03:30:15;3.40;;;1.75;;
51499;SDS011;39101;53.478;6.158;2022-08-30T03:32:42;4.50;;;1.92;;
51499;SDS011;39101;53.478;6.158;2022-08-30T03:35:08;4.32;;;1.88;;
51499;SDS011;39101;53.478;6.158;2022-08-30T03:37:35;5.03;;;1.85;;
51499;SDS011;39101;53.478;6.158;2022-08-30T03:40:02;3.83;;;1.70;;
51499;SDS011;39101;53.478;6.158;2022-08-30T03:42:29;5.28;;;1.80;;
51499;SDS011;39101;53.478;6.158;2022-08-30T03:44:55;3.08;;;1.63;;
51499;SDS011;39101;53.478;6.158;2022-08-30T03:47:20;6.57;;;2.60;;
51499;SDS011;39101;53.478;6.158;2022-08-30T03:49:46;3.97;;;1.90;;
51499;SDS011;39101;53.478;6.158;2022-08-30T03:52:11;3.85;;;1.85;;
51499;SDS011;39101;53.478;6.158;2022-08-30T03:54:37;4.43;;;1.77;;
51499;SDS011;39101;53.478;6.158;2022-08-30T03:57:04;4.90;;;2.33;;
51499;SDS011;39101;53.478;6.158;2022-08-30T03:59:30;3.08;;;1.75;;
51499;SDS011;39101;53.478;6.158;2022-08-30T04:01:55;6.38;;;2.00;;
51499;SDS011;39101;53.478;6.158;2022-08-30T04:04:23;4.38;;;1.92;;
51499;SDS011;39101;53.478;6.158;2022-08-30T04:06:49;5.75;;;2.20;;
51499;SDS011;39101;53.478;6.158;2022-08-30T04:09:15;2.85;;;1.88;;
51499;SDS011;39101;53.478;6.158;2022-08-30T04:11:42;4.68;;;2.40;;
51499;SDS011;39101;53.478;6.158;2022-08-30T04:14:07;4.10;;;2.50;;
51499;SDS011;39101;53.478;6.158;2022-08-30T04:16:33;5.18;;;3.28;;
51499;SDS011;39101;53.478;6.158;2022-08-30T04:18:59;4.40;;;2.92;;
51499;SDS011;39101;53.478;6.158;2022-08-30T04:21:25;5.28;;;2.70;;
51499;SDS011;39101;53.478;6.158;2022-08-30T04:23:51;4.90;;;2.42;;
51499;SDS011;39101;53.478;6.158;2022-08-30T04:26:16;4.97;;;2.85;;
51499;SDS011;39101;53.478;6.158;2022-08-30T04:28:42;5.22;;;2.30;;
51499;SDS011;39101;53.478;6.158;2022-08-30T04:31:08;6.50;;;3.20;;
51499;SDS011;39101;53.478;6.158;2022-08-30T04:33:35;6.88;;;2.40;;
51499;SDS011;39101;53.478;6.158;2022-08-30T04:36:02;5.38;;;2.50;;
51499;SDS011;39101;53.478;6.158;2022-08-30T04:38:30;6.25;;;2.45;;
51499;SDS011;39101;53.478;6.158;2022-08-30T04:40:57;3.75;;;1.95;;
51499;SDS011;39101;53.478;6.158;2022-08-30T04:43:23;8.27;;;2.72;;
51499;SDS011;39101;53.478;6.158;2022-08-30T04:45:52;3.63;;;2.58;;
51499;SDS011;39101;53.478;6.158;2022-08-30T04:48:19;4.10;;;2.13;;
51499;SDS011;39101;53.478;6.158;2022-08-30T04:50:46;5.38;;;2.55;;
51499;SDS011;39101;53.478;6.158;2022-08-30T04:53:13;3.88;;;2.25;;
51499;SDS011;39101;53.478;6.158;2022-08-30T04:55:40;6.05;;;2.47;;
51499;SDS011;39101;53.478;6.158;2022-08-30T04:58:07;3.40;;;1.92;;
51499;SDS011;39101;53.478;6.158;2022-08-30T05:00:34;4.75;;;2.30;;
51499;SDS011;39101;53.478;6.158;2022-08-30T05:03:01;5.47;;;2.50;;
51499;SDS011;39101;53.478;6.158;2022-08-30T05:05:28;6.07;;;2.13;;
51499;SDS011;39101;53.478;6.158;2022-08-30T05:08:10;3.22;;;2.13;;
51499;SDS011;39101;53.478;6.158;2022-08-30T05:10:37;4.18;;;2.47;;
51499;SDS011;39101;53.478;6.158;2022-08-30T05:13:05;3.80;;;2.28;;
51499;SDS011;39101;53.478;6.158;2022-08-30T05:15:31;4.30;;;2.30;;
51499;SDS011;39101;53.478;6.158;2022-08-30T05:17:57;7.03;;;3.42;;
51499;SDS011;39101;53.478;6.158;2022-08-30T05:20:23;4.63;;;2.40;;
51499;SDS011;39101;53.478;6.158;2022-08-30T05:22:49;6.97;;;2.50;;
51499;SDS011;39101;53.478;6.158;2022-08-30T05:25:18;6.45;;;2.13;;
51499;SDS011;39101;53.478;6.158;2022-08-30T05:27:48;5.93;;;2.35;;
51499;SDS011;39101;53.478;6.158;2022-08-30T05:30:14;4.88;;;1.75;;
51499;SDS011;39101;53.478;6.158;2022-08-30T05:32:40;5.28;;;2.08;;
51499;SDS011;39101;53.478;6.158;2022-08-30T05:35:07;4.97;;;2.17;;
51499;SDS011;39101;53.478;6.158;2022-08-30T05:37:34;3.33;;;1.80;;
51499;SDS011;39101;53.478;6.158;2022-08-30T05:40:00;2.45;;;1.85;;
51499;SDS011;39101;53.478;6.158;2022-08-30T05:42:26;4.78;;;2.03;;
51499;SDS011;39101;53.478;6.158;2022-08-30T05:44:52;3.65;;;1.90;;
51499;SDS011;39101;53.478;6.158;2022-08-30T05:47:19;8.27;;;2.00;;
51499;SDS011;39101;53.478;6.158;2022-08-30T05:49:45;3.70;;;2.15;;
51499;SDS011;39101;53.478;6.158;2022-08-30T05:52:11;5.60;;;2.25;;
51499;SDS011;39101;53.478;6.158;2022-08-30T05:54:39;4.55;;;2.40;;
51499;SDS011;39101;53.478;6.158;2022-08-30T05:57:05;5.93;;;2.70;;
51499;SDS011;39101;53.478;6.158;2022-08-30T05:59:31;5.88;;;2.60;;
51499;SDS011;39101;53.478;6.158;2022-08-30T06:01:57;6.40;;;3.10;;
51499;SDS011;39101;53.478;6.158;2022-08-30T06:04:25;4.68;;;2.10;;
51499;SDS011;39101;53.478;6.158;2022-08-30T06:06:51;6.03;;;1.80;;
51499;SDS011;39101;53.478;6.158;2022-08-30T06:09:17;3.53;;;1.90;;
51499;SDS011;39101;53.478;6.158;2022-08-30T06:11:42;6.25;;;2.10;;
51499;SDS011;39101;53.478;6.158;2022-08-30T06:14:09;4.30;;;1.45;;
51499;SDS011;39101;53.478;6.158;2022-08-30T06:16:36;3.83;;;1.65;;
51499;SDS011;39101;53.478;6.158;2022-08-30T06:19:03;4.30;;;1.95;;
51499;SDS011;39101;53.478;6.158;2022-08-30T06:21:30;4.05;;;1.42;;
51499;SDS011;39101;53.478;6.158;2022-08-30T06:23:58;3.05;;;1.70;;
51499;SDS011;39101;53.478;6.158;2022-08-30T06:26:25;3.58;;;1.38;;
51499;SDS011;39101;53.478;6.158;2022-08-30T06:28:51;4.75;;;1.60;;
51499;SDS011;39101;53.478;6.158;2022-08-30T06:31:18;3.88;;;1.55;;
51499;SDS011;39101;53.478;6.158;2022-08-30T06:33:45;2.85;;;1.40;;
51499;SDS011;39101;53.478;6.158;2022-08-30T06:36:12;4.75;;;1.55;;
51499;SDS011;39101;53.478;6.158;2022-08-30T06:38:40;3.60;;;1.40;;
51499;SDS011;39101;53.478;6.158;2022-08-30T06:41:07;4.15;;;1.40;;
51499;SDS011;39101;53.478;6.158;2022-08-30T06:43:35;3.85;;;1.52;;
51499;SDS011;39101;53.478;6.158;2022-08-30T06:46:02;3.60;;;1.40;;
51499;SDS011;39101;53.478;6.158;2022-08-30T06:48:33;4.10;;;1.73;;
51499;SDS011;39101;53.478;6.158;2022-08-30T06:50:58;3.97;;;1.33;;
51499;SDS011;39101;53.478;6.158;2022-08-30T06:53:24;4.13;;;1.55;;
51499;SDS011;39101;53.478;6.158;2022-08-30T06:55:54;3.60;;;1.45;;
51499;SDS011;39101;53.478;6.158;2022-08-30T06:58:22;2.03;;;1.10;;
51499;SDS011;39101;53.478;6.158;2022-08-30T07:00:48;3.35;;;1.30;;
51499;SDS011;39101;53.478;6.158;2022-08-30T07:03:13;3.80;;;1.42;;
51499;SDS011;39101;53.478;6.158;2022-08-30T07:05:39;3.55;;;1.30;;
51499;SDS011;39101;53.478;6.158;2022-08-30T07:08:05;2.55;;;1.33;;
51499;SDS011;39101;53.478;6.158;2022-08-30T07:10:30;4.95;;;1.45;;
51499;SDS011;39101;53.478;6.158;2022-08-30T07:12:56;2.47;;;1.30;;
51499;SDS011;39101;53.478;6.158;2022-08-30T07:15:22;3.33;;;1.38;;
51499;SDS011;39101;53.478;6.158;2022-08-30T07:17:47;3.67;;;1.15;;
51499;SDS011;39101;53.478;6.158;2022-08-30T07:20:32;4.90;;;1.40;;
51499;SDS011;39101;53.478;6.158;2022-08-30T07:22:58;4.63;;;1.48;;
51499;SDS011;39101;53.478;6.158;2022-08-30T07:25:23;2.33;;;1.30;;
51499;SDS011;39101;53.478;6.158;2022-08-30T07:27:49;3.08;;;1.35;;
51499;SDS011;39101;53.478;6.158;2022-08-30T07:30:16;8.32;;;1.83;;
51499;SDS011;39101;53.478;6.158;2022-08-30T07:32:42;2.88;;;1.10;;
51499;SDS011;39101;53.478;6.158;2022-08-30T07:35:08;4.00;;;1.35;;
51499;SDS011;39101;53.478;6.158;2022-08-30T07:37:34;2.75;;;1.17;;
51499;SDS011;39101;53.478;6.158;2022-08-30T07:40:00;4.43;;;1.40;;
51499;SDS011;39101;53.478;6.158;2022-08-30T07:42:26;2.13;;;1.10;;
51499;SDS011;39101;53.478;6.158;2022-08-30T07:44:52;3.20;;;1.52;;
51499;SDS011;39101;53.478;6.158;2022-08-30T07:47:18;2.17;;;1.02;;
51499;SDS011;39101;53.478;6.158;2022-08-30T07:49:43;5.90;;;1.92;;
51499;SDS011;39101;53.478;6.158;2022-08-30T07:52:09;5.75;;;1.88;;
51499;SDS011;39101;53.478;6.158;2022-08-30T07:54:35;4.05;;;1.60;;
51499;SDS011;39101;53.478;6.158;2022-08-30T07:57:01;4.90;;;1.70;;
51499;SDS011;39101;53.478;6.158;2022-08-30T07:59:26;3.67;;;1.50;;
51499;SDS011;39101;53.478;6.158;2022-08-30T08:01:52;3.78;;;1.60;;
51499;SDS011;39101;53.478;6.158;2022-08-30T08:04:17;2.63;;;1.50;;
51499;SDS011;39101;53.478;6.158;2022-08-30T08:06:43;2.55;;;1.38;;
51499;SDS011;39101;53.478;6.158;2022-08-30T08:09:09;5.75;;;1.45;;
51499;SDS011;39101;53.478;6.158;2022-08-30T08:11:35;3.05;;;1.27;;
51499;SDS011;39101;53.478;6.158;2022-08-30T08:14:02;3.80;;;1.27;;
51499;SDS011;39101;53.478;6.158;2022-08-30T08:16:30;3.88;;;1.40;;
51499;SDS011;39101;53.478;6.158;2022-08-30T08:18:59;3.78;;;1.70;;
51499;SDS011;39101;53.478;6.158;2022-08-30T08:21:25;6.50;;;1.73;;
51499;SDS011;39101;53.478;6.158;2022-08-30T08:23:52;2.40;;;1.15;;
51499;SDS011;39101;53.478;6.158;2022-08-30T08:26:18;4.40;;;1.33;;
51499;SDS011;39101;53.478;6.158;2022-08-30T08:28:44;4.88;;;1.08;;
51499;SDS011;39101;53.478;6.158;2022-08-30T08:33:44;4.35;;;1.40;;
51499;SDS011;39101;53.478;6.158;2022-08-30T08:36:10;3.17;;;1.20;;
51499;SDS011;39101;53.478;6.158;2022-08-30T08:38:35;2.30;;;1.13;;
51499;SDS011;39101;53.478;6.158;2022-08-30T08:43:32;2.92;;;1.30;;
51499;SDS011;39101;53.478;6.158;2022-08-30T08:46:05;3.15;;;1.23;;
51499;SDS011;39101;53.478;6.158;2022-08-30T08:48:45;3.80;;;1.40;;
51499;SDS011;39101;53.478;6.158;2022-08-30T08:51:17;2.78;;;1.00;;
51499;SDS011;39101;53.478;6.158;2022-08-30T08:54:04;3.35;;;1.30;;
51499;SDS011;39101;53.478;6.158;2022-08-30T08:56:35;3.13;;;1.35;;
51499;SDS011;39101;53.478;6.158;2022-08-30T08:59:02;4.47;;;1.30;;
51499;SDS011;39101;53.478;6.158;2022-08-30T09:03:58;2.55;;;1.60;;
51499;SDS011;39101;53.478;6.158;2022-08-30T09:06:42;2.72;;;1.30;;
51499;SDS011;39101;53.478;6.158;2022-08-30T09:09:22;2.85;;;1.30;;
51499;SDS011;39101;53.478;6.158;2022-08-30T09:11:53;2.35;;;1.55;;
51499;SDS011;39101;53.478;6.158;2022-08-30T09:14:27;3.70;;;1.30;;
51499;SDS011;39101;53.478;6.158;2022-08-30T09:16:58;3.88;;;1.08;;
51499;SDS011;39101;53.478;6.158;2022-08-30T09:24:38;4.60;;;1.20;;
51499;SDS011;39101;53.478;6.158;2022-08-30T09:30:07;5.13;;;1.00;;
51499;SDS011;39101;53.478;6.158;2022-08-30T09:32:55;4.95;;;1.30;;
51499;SDS011;39101;53.478;6.158;2022-08-30T09:35:37;3.78;;;1.02;;
51499;SDS011;39101;53.478;6.158;2022-08-30T09:38:11;2.53;;;1.08;;
51499;SDS011;39101;53.478;6.158;2022-08-30T09:40:54;4.07;;;1.35;;
51499;SDS011;39101;53.478;6.158;2022-08-30T09:43:23;4.03;;;1.42;;
51499;SDS011;39101;53.478;6.158;2022-08-30T09:53:32;3.15;;;1.13;;
51499;SDS011;39101;53.478;6.158;2022-08-30T09:56:09;1.67;;;0.73;;
51499;SDS011;39101;53.478;6.158;2022-08-30T10:01:21;5.20;;;1.63;;
51499;SDS011;39101;53.478;6.158;2022-08-30T10:14:50;1.95;;;1.10;;
51499;SDS011;39101;53.478;6.158;2022-08-30T10:17:26;2.67;;;1.00;;
51499;SDS011;39101;53.478;6.158;2022-08-30T10:25:22;5.43;;;1.35;;
51499;SDS011;39101;53.478;6.158;2022-08-30T10:28:10;2.45;;;1.17;;
51499;SDS011;39101;53.478;6.158;2022-08-30T10:30:43;2.72;;;1.10;;
51499;SDS011;39101;53.478;6.158;2022-08-30T10:33:16;2.30;;;0.98;;
51499;SDS011;39101;53.478;6.158;2022-08-30T10:35:47;2.80;;;0.95;;
51499;SDS011;39101;53.478;6.158;2022-08-30T10:38:27;3.72;;;1.30;;
51499;SDS011;39101;53.478;6.158;2022-08-30T10:46:42;3.00;;;1.17;;
51499;SDS011;39101;53.478;6.158;2022-08-30T10:49:21;2.72;;;1.00;;
51499;SDS011;39101;53.478;6.158;2022-08-30T10:51:52;3.90;;;1.08;;
51499;SDS011;39101;53.478;6.158;2022-08-30T10:56:55;4.38;;;1.15;;
51499;SDS011;39101;53.478;6.158;2022-08-30T10:59:22;3.42;;;1.25;;
51499;SDS011;39101;53.478;6.158;2022-08-30T11:07:36;4.15;;;1.52;;
51499;SDS011;39101;53.478;6.158;2022-08-30T11:10:28;4.72;;;1.20;;
51499;SDS011;39101;53.478;6.158;2022-08-30T11:13:09;5.25;;;1.50;;
51499;SDS011;39101;53.478;6.158;2022-08-30T11:18:24;1.77;;;1.02;;
51499;SDS011;39101;53.478;6.158;2022-08-30T11:20:53;4.27;;;1.27;;
51499;SDS011;39101;53.478;6.158;2022-08-30T11:23:39;5.68;;;1.10;;
51499;SDS011;39101;53.478;6.158;2022-08-30T11:26:06;3.30;;;1.10;;
51499;SDS011;39101;53.478;6.158;2022-08-30T11:31:09;5.15;;;1.10;;
51499;SDS011;39101;53.478;6.158;2022-08-30T11:33:53;2.90;;;1.13;;
51499;SDS011;39101;53.478;6.158;2022-08-30T11:41:28;4.32;;;1.25;;
51499;SDS011;39101;53.478;6.158;2022-08-30T11:46:46;2.08;;;1.00;;
51499;SDS011;39101;53.478;6.158;2022-08-30T11:57:11;3.13;;;1.08;;
51499;SDS011;39101;53.478;6.158;2022-08-30T12:00:09;8.18;;;1.60;;
51499;SDS011;39101;53.478;6.158;2022-08-30T12:02:44;2.47;;;1.00;;
51499;SDS011;39101;53.478;6.158;2022-08-30T12:19:27;2.63;;;1.00;;
51499;SDS011;39101;53.478;6.158;2022-08-30T12:22:00;2.75;;;1.08;;
51499;SDS011;39101;53.478;6.158;2022-08-30T12:24:34;4.35;;;1.30;;
51499;SDS011;39101;53.478;6.158;2022-08-30T12:30:06;4.47;;;1.25;;
51499;SDS011;39101;53.478;6.158;2022-08-30T12:32:32;3.15;;;1.10;;
51499;SDS011;39101;53.478;6.158;2022-08-30T12:35:15;5.38;;;1.10;;
51499;SDS011;39101;53.478;6.158;2022-08-30T12:37:52;7.47;;;1.45;;
51499;SDS011;39101;53.478;6.158;2022-08-30T12:40:29;2.65;;;1.42;;
51499;SDS011;39101;53.478;6.158;2022-08-30T12:42:59;3.15;;;1.40;;
51499;SDS011;39101;53.478;6.158;2022-08-30T12:45:42;1.90;;;1.00;;
51499;SDS011;39101;53.478;6.158;2022-08-30T12:48:11;2.45;;;0.90;;
51499;SDS011;39101;53.478;6.158;2022-08-30T12:56:03;2.75;;;1.00;;
51499;SDS011;39101;53.478;6.158;2022-08-30T12:58:36;3.78;;;1.10;;
51499;SDS011;39101;53.478;6.158;2022-08-30T13:03:43;2.75;;;1.42;;
51499;SDS011;39101;53.478;6.158;2022-08-30T13:09:46;2.88;;;1.38;;
51499;SDS011;39101;53.478;6.158;2022-08-30T13:12:19;2.53;;;1.00;;
51499;SDS011;39101;53.478;6.158;2022-08-30T13:14:47;3.30;;;1.20;;
51499;SDS011;39101;53.478;6.158;2022-08-30T13:19:43;4.32;;;1.10;;
51499;SDS011;39101;53.478;6.158;2022-08-30T13:22:25;1.25;;;1.05;;
51499;SDS011;39101;53.478;6.158;2022-08-30T13:24:53;1.92;;;0.90;;
51499;SDS011;39101;53.478;6.158;2022-08-30T13:27:19;1.90;;;1.00;;
51499;SDS011;39101;53.478;6.158;2022-08-30T13:29:45;3.00;;;0.90;;
51499;SDS011;39101;53.478;6.158;2022-08-30T13:32:11;2.58;;;1.10;;
51499;SDS011;39101;53.478;6.158;2022-08-30T13:34:38;3.08;;;1.15;;
51499;SDS011;39101;53.478;6.158;2022-08-30T13:37:04;4.60;;;1.05;;
51499;SDS011;39101;53.478;6.158;2022-08-30T13:39:31;2.58;;;1.30;;
51499;SDS011;39101;53.478;6.158;2022-08-30T13:41:57;2.70;;;1.00;;
51499;SDS011;39101;53.478;6.158;2022-08-30T13:44:23;2.70;;;1.17;;
51499;SDS011;39101;53.478;6.158;2022-08-30T13:46:50;3.45;;;1.00;;
51499;SDS011;39101;53.478;6.158;2022-08-30T13:49:23;3.10;;;1.70;;
51499;SDS011;39101;53.478;6.158;2022-08-30T13:51:50;3.38;;;0.95;;
51499;SDS011;39101;53.478;6.158;2022-08-30T13:54:18;3.92;;;1.38;;
51499;SDS011;39101;53.478;6.158;2022-08-30T13:56:47;3.92;;;1.05;;
51499;SDS011;39101;53.478;6.158;2022-08-30T13:59:13;5.53;;;1.35;;
51499;SDS011;39101;53.478;6.158;2022-08-30T14:01:39;6.75;;;1.05;;
51499;SDS011;39101;53.478;6.158;2022-08-30T14:04:04;3.85;;;1.27;;
51499;SDS011;39101;53.478;6.158;2022-08-30T14:06:30;1.58;;;0.80;;
51499;SDS011;39101;53.478;6.158;2022-08-30T14:08:56;3.08;;;1.10;;
51499;SDS011;39101;53.478;6.158;2022-08-30T14:11:21;3.65;;;1.40;;
51499;SDS011;39101;53.478;6.158;2022-08-30T14:13:47;3.28;;;1.10;;
51499;SDS011;39101;53.478;6.158;2022-08-30T14:16:14;3.05;;;1.00;;
51499;SDS011;39101;53.478;6.158;2022-08-30T14:18:39;3.58;;;1.15;;
51499;SDS011;39101;53.478;6.158;2022-08-30T14:21:05;2.75;;;1.20;;
51499;SDS011;39101;53.478;6.158;2022-08-30T14:23:30;3.65;;;1.30;;
51499;SDS011;39101;53.478;6.158;2022-08-30T14:25:56;3.97;;;1.20;;
51499;SDS011;39101;53.478;6.158;2022-08-30T14:28:24;2.72;;;1.50;;
51499;SDS011;39101;53.478;6.158;2022-08-30T14:30:53;3.20;;;1.35;;
51499;SDS011;39101;53.478;6.158;2022-08-30T14:33:18;1.48;;;0.90;;
51499;SDS011;39101;53.478;6.158;2022-08-30T14:35:44;5.28;;;1.23;;
51499;SDS011;39101;53.478;6.158;2022-08-30T14:38:10;2.53;;;1.30;;
51499;SDS011;39101;53.478;6.158;2022-08-30T14:40:35;3.63;;;1.30;;
51499;SDS011;39101;53.478;6.158;2022-08-30T14:43:02;1.67;;;1.02;;
51499;SDS011;39101;53.478;6.158;2022-08-30T14:45:27;1.88;;;1.25;;
51499;SDS011;39101;53.478;6.158;2022-08-30T14:47:54;4.63;;;1.13;;
51499;SDS011;39101;53.478;6.158;2022-08-30T14:50:21;1.33;;;0.77;;
51499;SDS011;39101;53.478;6.158;2022-08-30T14:52:47;4.18;;;1.48;;
51499;SDS011;39101;53.478;6.158;2022-08-30T14:55:12;3.15;;;0.90;;
51499;SDS011;39101;53.478;6.158;2022-08-30T14:57:38;2.17;;;0.88;;
51499;SDS011;39101;53.478;6.158;2022-08-30T15:00:05;4.97;;;1.20;;
51499;SDS011;39101;53.478;6.158;2022-08-30T15:02:33;2.88;;;1.73;;
51499;SDS011;39101;53.478;6.158;2022-08-30T15:04:59;3.22;;;1.20;;
51499;SDS011;39101;53.478;6.158;2022-08-30T15:07:25;1.13;;;0.80;;
51499;SDS011;39101;53.478;6.158;2022-08-30T15:09:50;3.45;;;1.02;;
51499;SDS011;39101;53.478;6.158;2022-08-30T15:12:17;2.65;;;1.13;;
51499;SDS011;39101;53.478;6.158;2022-08-30T15:14:42;1.90;;;0.90;;
51499;SDS011;39101;53.478;6.158;2022-08-30T15:17:08;3.20;;;1.13;;
51499;SDS011;39101;53.478;6.158;2022-08-30T15:19:34;2.70;;;0.85;;
51499;SDS011;39101;53.478;6.158;2022-08-30T15:22:01;4.45;;;1.00;;
51499;SDS011;39101;53.478;6.158;2022-08-30T15:24:30;3.25;;;0.90;;
51499;SDS011;39101;53.478;6.158;2022-08-30T15:26:57;4.63;;;1.08;;
51499;SDS011;39101;53.478;6.158;2022-08-30T15:29:24;2.60;;;1.00;;
51499;SDS011;39101;53.478;6.158;2022-08-30T15:31:50;7.03;;;1.10;;
51499;SDS011;39101;53.478;6.158;2022-08-30T15:34:18;4.20;;;1.17;;
51499;SDS011;39101;53.478;6.158;2022-08-30T15:36:46;2.58;;;0.90;;
51499;SDS011;39101;53.478;6.158;2022-08-30T15:39:13;2.63;;;0.80;;
51499;SDS011;39101;53.478;6.158;2022-08-30T15:41:39;2.80;;;1.10;;
51499;SDS011;39101;53.478;6.158;2022-08-30T15:44:06;2.33;;;1.38;;
51499;SDS011;39101;53.478;6.158;2022-08-30T15:46:33;5.50;;;1.20;;
51499;SDS011;39101;53.478;6.158;2022-08-30T15:49:04;3.80;;;1.20;;
51499;SDS011;39101;53.478;6.158;2022-08-30T15:51:30;4.80;;;1.00;;
51499;SDS011;39101;53.478;6.158;2022-08-30T15:53:57;3.63;;;0.90;;
51499;SDS011;39101;53.478;6.158;2022-08-30T15:56:22;5.97;;;1.42;;
51499;SDS011;39101;53.478;6.158;2022-08-30T15:58:49;2.83;;;1.10;;
51499;SDS011;39101;53.478;6.158;2022-08-30T16:01:15;2.33;;;1.17;;
51499;SDS011;39101;53.478;6.158;2022-08-30T16:03:41;5.38;;;1.40;;
51499;SDS011;39101;53.478;6.158;2022-08-30T16:06:11;3.20;;;1.52;;
51499;SDS011;39101;53.478;6.158;2022-08-30T16:08:56;5.13;;;1.38;;
51499;SDS011;39101;53.478;6.158;2022-08-30T16:11:23;2.60;;;1.10;;
51499;SDS011;39101;53.478;6.158;2022-08-30T16:13:53;2.25;;;1.05;;
51499;SDS011;39101;53.478;6.158;2022-08-30T16:16:20;1.92;;;0.90;;
51499;SDS011;39101;53.478;6.158;2022-08-30T16:18:47;2.53;;;1.05;;
51499;SDS011;39101;53.478;6.158;2022-08-30T16:21:15;7.35;;;1.38;;
51499;SDS011;39101;53.478;6.158;2022-08-30T16:23:44;3.63;;;1.30;;
51499;SDS011;39101;53.478;6.158;2022-08-30T16:26:10;4.07;;;1.23;;
51499;SDS011;39101;53.478;6.158;2022-08-30T16:28:37;2.97;;;1.38;;
51499;SDS011;39101;53.478;6.158;2022-08-30T16:31:04;3.78;;;1.20;;
51499;SDS011;39101;53.478;6.158;2022-08-30T16:33:30;5.55;;;1.45;;
51499;SDS011;39101;53.478;6.158;2022-08-30T16:35:57;5.85;;;1.52;;
51499;SDS011;39101;53.478;6.158;2022-08-30T16:38:23;5.38;;;2.25;;
51499;SDS011;39101;53.478;6.158;2022-08-30T16:40:50;5.15;;;1.60;;
51499;SDS011;39101;53.478;6.158;2022-08-30T16:43:15;3.22;;;1.38;;
51499;SDS011;39101;53.478;6.158;2022-08-30T16:45:42;7.65;;;1.50;;